KCOF/COF METAR and TAF weather

Enter ICAO airport designator
Station Type Date Time Source
KCOF METAR 2020/03/29 10:56 UTC NOAA

KCOF 291056Z AUTO 18005KT 10SM CLR 21/18 A3012 RMK AO2 SLP204 T02050181 $


Station Type Date Time Source
KCOF Decoded METAR 2020/03/29 10:56 UTC NOAA

Cocoa / Patrick Air Force Base, FL, United States (KCOF) 28-14N 080-36W 3M
Mar 29, 2020 - 06:56 AM EDT / 2020.03.29 1056 UTC
Wind: from the S (180 degrees) at 6 MPH (5 KT):0
Visibility: 10 mile(s):0
Sky conditions: clear
Temperature: 68.9 F (20.5 C)
Dew Point: 64.6 F (18.1 C)
Relative Humidity: 86%
Pressure (altimeter): 30.12 in. Hg (1019 hPa)
ob: KCOF 291056Z AUTO 18005KT 10SM CLR 21/18 A3012 RMK AO2 SLP204 T02050181
cycle: 11

Station Type Date Time Source
KCOF TAF 2020/03/28 15:06 UTC NOAA

TAF TAF
AMD KCOF 281500Z 2815/2916 15010KT 9999 FEW030 QNH3003INS
BECMG 2815/2816 14015KT 9999 SKC QNH3001INS
BECMG 2904/2905 20007KT 9999 SCT020 QNH3005INS TX28/2818Z TN20/2910Z LAST NO
AMDS AFT 2815 NEXT 3010

Example: see airport list